createdAt,value
2018-12-20T00:00:22.265Z,25.17
2018-12-20T00:01:22.396Z,25.09
2018-12-20T00:02:22.357Z,25.10
2018-12-20T00:03:22.336Z,25.20
2018-12-20T00:04:22.351Z,25.10
2018-12-20T00:05:22.502Z,25.10
2018-12-20T00:06:22.494Z,25.16
2018-12-20T00:07:22.537Z,25.15
2018-12-20T00:08:22.576Z,25.15
2018-12-20T00:09:22.625Z,25.17
2018-12-20T00:10:22.694Z,25.12
2018-12-20T00:11:22.728Z,25.13
2018-12-20T00:12:22.835Z,25.16
2018-12-20T00:13:22.843Z,25.19
2018-12-20T00:14:29.712Z,25.16
2018-12-20T00:15:22.903Z,25.16
2018-12-20T00:16:22.962Z,25.15
2018-12-20T00:17:22.998Z,25.15
2018-12-20T00:18:23.047Z,25.13
2018-12-20T00:19:23.120Z,25.06
2018-12-20T00:20:23.226Z,25.10
2018-12-20T00:21:23.205Z,25.15
2018-12-20T00:22:23.250Z,25.17
2018-12-20T00:23:23.305Z,25.15
2018-12-20T00:24:23.415Z,25.20
2018-12-20T00:25:23.427Z,25.06
2018-12-20T00:26:23.503Z,25.12
2018-12-20T00:27:23.613Z,25.15
2018-12-20T00:28:23.551Z,25.13
2018-12-20T00:29:23.782Z,25.17
2018-12-20T00:30:23.665Z,25.13
2018-12-20T00:31:23.697Z,25.09
2018-12-20T00:32:23.796Z,25.13
2018-12-20T00:33:23.783Z,25.10
2018-12-20T00:34:23.864Z,25.17
2018-12-20T00:35:24.029Z,25.13
2018-12-20T00:36:24.006Z,25.13
2018-12-20T00:37:24.148Z,25.12
2018-12-20T00:38:24.039Z,25.10
2018-12-20T00:39:24.075Z,25.12
2018-12-20T00:40:24.165Z,25.10
2018-12-20T00:41:24.187Z,25.12
2018-12-20T00:42:24.302Z,25.16
2018-12-20T00:43:24.438Z,25.13
2018-12-20T00:44:24.334Z,25.09
2018-12-20T00:45:24.417Z,25.15
2018-12-20T00:46:24.437Z,25.10
2018-12-20T00:47:24.520Z,25.12
2018-12-20T00:48:24.625Z,25.13
2018-12-20T00:49:24.583Z,25.12
2018-12-20T00:50:24.612Z,25.10
2018-12-20T00:51:24.718Z,25.12
2018-12-20T00:52:24.890Z,25.02
2018-12-20T00:53:24.807Z,25.10
2018-12-20T00:54:24.874Z,25.09
2018-12-20T00:55:24.918Z,25.05
2018-12-20T00:56:24.938Z,24.98
2018-12-20T00:57:25.037Z,25.12
2018-12-20T00:58:25.039Z,25.06
2018-12-20T00:59:25.110Z,25.02
2018-12-20T01:00:25.130Z,24.95
2018-12-20T01:01:25.293Z,24.97
2018-12-20T01:02:25.413Z,24.90
2018-12-20T01:03:25.380Z,24.90
2018-12-20T01:04:25.469Z,24.95
2018-12-20T01:05:25.446Z,24.95
2018-12-20T01:06:25.562Z,24.94
2018-12-20T01:07:25.443Z,24.91
2018-12-20T01:08:25.479Z,24.90
2018-12-20T01:09:25.544Z,24.91
2018-12-20T01:10:25.589Z,24.88
2018-12-20T01:11:25.724Z,24.79
2018-12-20T01:12:25.700Z,24.79
2018-12-20T01:13:25.850Z,24.79
2018-12-20T01:14:25.903Z,24.82
2018-12-20T01:15:25.852Z,24.82
2018-12-20T01:16:25.901Z,24.79
2018-12-20T01:17:26.049Z,24.79
2018-12-20T01:18:25.988Z,24.80
2018-12-20T01:19:26.110Z,24.76
2018-12-20T01:20:26.080Z,24.92
2018-12-20T01:21:26.169Z,24.88
2018-12-20T01:22:26.214Z,24.82
2018-12-20T01:23:26.214Z,24.87
2018-12-20T01:24:26.383Z,24.85
2018-12-20T01:25:26.382Z,24.91
2018-12-20T01:26:26.402Z,24.91
2018-12-20T01:27:26.425Z,24.79
2018-12-20T01:28:26.625Z,24.90
2018-12-20T01:29:26.524Z,24.80
2018-12-20T01:30:26.562Z,24.82
2018-12-20T01:31:26.686Z,24.75
2018-12-20T01:32:26.649Z,24.79
2018-12-20T01:33:26.828Z,24.79
2018-12-20T01:34:26.747Z,24.80
2018-12-20T01:35:26.883Z,24.82
2018-12-20T01:36:26.862Z,24.79
2018-12-20T01:37:26.886Z,24.83
2018-12-20T01:38:27.002Z,24.83
2018-12-20T01:39:26.989Z,24.85
2018-12-20T01:40:27.028Z,24.76
2018-12-20T01:41:27.212Z,24.83
2018-12-20T01:42:27.151Z,24.82
2018-12-20T01:43:27.281Z,24.83
2018-12-20T01:44:27.313Z,24.80
2018-12-20T01:45:27.469Z,24.76
2018-12-20T01:46:27.584Z,24.71
2018-12-20T01:47:27.630Z,24.76
2018-12-20T01:48:27.495Z,24.76
2018-12-20T01:49:27.649Z,24.79
2018-12-20T01:50:27.542Z,24.75
2018-12-20T01:51:27.613Z,24.68
2018-12-20T01:52:27.694Z,24.75
2018-12-20T01:53:27.762Z,24.77
2018-12-20T01:54:27.898Z,24.76
2018-12-20T01:55:27.911Z,24.63
2018-12-20T01:56:27.931Z,24.71
2018-12-20T01:57:27.910Z,24.79
2018-12-20T01:58:27.924Z,24.76
2018-12-20T01:59:27.988Z,24.83
2018-12-20T02:00:28.115Z,24.77
2018-12-20T02:01:28.097Z,24.76
2018-12-20T02:02:28.123Z,24.77
2018-12-20T02:03:28.151Z,24.77
2018-12-20T02:04:28.388Z,24.82
2018-12-20T02:05:28.245Z,24.87
2018-12-20T02:06:28.321Z,24.76
2018-12-20T02:07:28.361Z,24.85
2018-12-20T02:08:28.554Z,24.85
2018-12-20T02:09:28.491Z,24.83
2018-12-20T02:10:28.524Z,24.77
2018-12-20T02:11:28.546Z,24.83
2018-12-20T02:12:28.664Z,24.76
2018-12-20T02:13:28.651Z,24.76
2018-12-20T02:14:28.975Z,24.80
2018-12-20T02:15:28.886Z,24.75
2018-12-20T02:16:28.988Z,24.76
2018-12-20T02:17:28.963Z,24.83
2018-12-20T02:18:29.014Z,24.76
2018-12-20T02:19:28.913Z,24.77
2018-12-20T02:20:28.985Z,24.80
2018-12-20T02:21:29.068Z,24.76
2018-12-20T02:22:29.082Z,24.75
2018-12-20T02:23:29.283Z,24.76
2018-12-20T02:24:29.345Z,24.79
2018-12-20T02:25:29.335Z,24.77
2018-12-20T02:26:29.353Z,24.80
2018-12-20T02:27:29.336Z,24.80
2018-12-20T02:28:29.528Z,24.80
2018-12-20T02:29:29.445Z,24.76
2018-12-20T02:30:29.627Z,24.71
2018-12-20T02:31:29.502Z,24.76
2018-12-20T02:32:29.587Z,24.67
2018-12-20T02:33:29.604Z,24.67
2018-12-20T02:34:29.829Z,24.68
2018-12-20T02:35:29.798Z,24.76
2018-12-20T02:36:29.825Z,24.79
2018-12-20T02:37:29.790Z,24.79
2018-12-20T02:38:30.085Z,24.76
2018-12-20T02:39:30.078Z,24.69
2018-12-20T02:40:30.130Z,24.79
2018-12-20T02:41:30.290Z,24.76
2018-12-20T02:42:30.392Z,24.73
2018-12-20T02:43:30.263Z,24.76
2018-12-20T02:44:30.184Z,24.76
2018-12-20T02:45:30.214Z,24.76
2018-12-20T02:46:30.445Z,24.73
2018-12-20T02:47:30.273Z,24.68
2018-12-20T02:48:30.327Z,24.61
2018-12-20T02:49:30.356Z,24.64
2018-12-20T02:50:30.418Z,24.59
2018-12-20T02:51:30.493Z,24.63
2018-12-20T02:52:30.680Z,24.61
2018-12-20T02:53:30.668Z,24.67
2018-12-20T02:54:30.812Z,24.64
2018-12-20T02:55:31.021Z,24.63
2018-12-20T02:56:31.033Z,24.63
2018-12-20T02:57:30.887Z,24.68
2018-12-20T02:58:31.042Z,24.69
2018-12-20T02:59:30.882Z,24.61
2018-12-20T03:00:30.907Z,24.67
2018-12-20T03:01:30.958Z,24.63
2018-12-20T03:02:31.062Z,24.57
2018-12-20T03:03:31.046Z,24.59
2018-12-20T03:04:31.108Z,24.63
2018-12-20T03:05:31.305Z,24.61
2018-12-20T03:06:31.200Z,24.60
2018-12-20T03:07:31.252Z,24.52
2018-12-20T03:08:31.366Z,24.59
2018-12-20T03:09:31.356Z,24.53
2018-12-20T03:10:31.579Z,24.56
2018-12-20T03:11:31.424Z,24.52
2018-12-20T03:12:31.532Z,24.53
2018-12-20T03:13:31.635Z,24.54
2018-12-20T03:14:31.591Z,24.54
2018-12-20T03:15:31.721Z,24.53
2018-12-20T03:16:31.754Z,24.50
2018-12-20T03:17:31.802Z,24.57
2018-12-20T03:18:31.769Z,24.52
2018-12-20T03:19:31.940Z,24.50
2018-12-20T03:20:31.963Z,24.53
2018-12-20T03:21:31.965Z,24.56
2018-12-20T03:22:32.018Z,24.50
2018-12-20T03:23:32.287Z,24.53
2018-12-20T03:24:32.245Z,24.56
2018-12-20T03:25:32.278Z,24.52
2018-12-20T03:26:32.162Z,24.53
2018-12-20T03:27:32.219Z,24.54
2018-12-20T03:28:32.381Z,24.53
2018-12-20T03:29:32.463Z,24.54
2018-12-20T03:30:32.354Z,24.54
2018-12-20T03:31:32.587Z,24.59
2018-12-20T03:32:32.440Z,24.53
2018-12-20T03:33:32.513Z,24.59
2018-12-20T03:34:32.726Z,24.45
2018-12-20T03:35:32.586Z,24.53
2018-12-20T03:36:32.701Z,24.57
2018-12-20T03:37:32.903Z,24.47
2018-12-20T03:38:32.903Z,24.50
2018-12-20T03:39:32.782Z,24.57
2018-12-20T03:40:32.975Z,24.56
2018-12-20T03:41:33.096Z,24.47
2018-12-20T03:42:33.218Z,24.42
2018-12-20T03:43:32.983Z,24.44
2018-12-20T03:44:33.189Z,24.44
2018-12-20T03:45:33.103Z,24.47
2018-12-20T03:46:33.413Z,24.47
2018-12-20T03:47:33.357Z,24.44
2018-12-20T03:48:33.230Z,24.42
2018-12-20T03:49:33.606Z,24.35
2018-12-20T03:50:33.311Z,24.39
2018-12-20T03:51:33.564Z,24.42
2018-12-20T03:52:33.502Z,24.39
2018-12-20T03:53:33.511Z,24.39
2018-12-20T03:54:33.576Z,24.38
2018-12-20T03:55:33.568Z,24.38
2018-12-20T03:56:33.720Z,24.35
2018-12-20T03:57:33.667Z,24.39
2018-12-20T03:58:33.870Z,24.24
2018-12-20T03:59:33.745Z,24.27
2018-12-20T04:00:33.786Z,24.26
2018-12-20T04:01:33.871Z,24.24
2018-12-20T04:02:34.226Z,24.29
2018-12-20T04:03:34.372Z,24.26
2018-12-20T04:04:34.061Z,24.27
2018-12-20T04:05:34.052Z,24.27
2018-12-20T04:06:34.193Z,24.23
2018-12-20T04:07:34.130Z,24.34
2018-12-20T04:08:34.325Z,24.23
2018-12-20T04:09:34.397Z,24.24
2018-12-20T04:10:34.309Z,24.32
2018-12-20T04:11:34.646Z,24.29
2018-12-20T04:12:34.390Z,24.26
2018-12-20T04:13:34.423Z,24.26
2018-12-20T04:14:34.466Z,24.29
2018-12-20T04:15:37.950Z,24.26
2018-12-20T04:16:34.644Z,24.38
2018-12-20T04:17:34.782Z,24.32
2018-12-20T04:18:34.655Z,24.22
2018-12-20T04:19:34.722Z,24.22
2018-12-20T04:20:34.789Z,24.24
2018-12-20T04:21:35.137Z,24.20
2018-12-20T04:22:34.906Z,24.22
2018-12-20T04:23:34.992Z,24.16
2018-12-20T04:24:35.114Z,24.22
2018-12-20T04:25:35.388Z,24.14
2018-12-20T04:26:35.271Z,24.17
2018-12-20T04:27:35.110Z,24.14
2018-12-20T04:28:35.188Z,24.13
2018-12-20T04:29:35.212Z,24.16
2018-12-20T04:30:35.249Z,24.13
2018-12-20T04:31:35.439Z,24.10
2018-12-20T04:32:35.456Z,24.10
2018-12-20T04:33:35.405Z,24.13
2018-12-20T04:34:35.655Z,24.07
2018-12-20T04:35:35.532Z,24.17
2018-12-20T04:36:35.795Z,24.14
2018-12-20T04:37:35.591Z,24.10
2018-12-20T04:38:35.736Z,24.16
2018-12-20T04:39:35.880Z,24.13
2018-12-20T04:40:35.863Z,24.10
2018-12-20T04:41:35.754Z,24.08
2018-12-20T04:42:35.816Z,24.05
2018-12-20T04:43:35.857Z,23.98
2018-12-20T04:44:36.072Z,24.02
2018-12-20T04:45:36.015Z,24.07
2018-12-20T04:46:36.025Z,24.01
2018-12-20T04:47:36.054Z,24.01
2018-12-20T04:48:36.139Z,24.10
2018-12-20T04:49:36.286Z,24.00
2018-12-20T04:50:36.421Z,23.97
2018-12-20T04:51:36.254Z,24.05
2018-12-20T04:52:36.307Z,24.02
2018-12-20T04:53:36.387Z,24.02
2018-12-20T04:54:36.388Z,24.04
2018-12-20T04:55:36.518Z,23.98
2018-12-20T04:56:36.533Z,23.94
2018-12-20T04:57:36.637Z,23.94
2018-12-20T04:58:36.814Z,23.97
2018-12-20T04:59:36.620Z,24.02
2018-12-20T05:00:36.680Z,24.02
2018-12-20T05:01:36.774Z,24.01
2018-12-20T05:02:36.783Z,23.94
2018-12-20T05:03:36.832Z,24.00
2018-12-20T05:04:36.930Z,24.04
2018-12-20T05:05:36.925Z,24.04
2018-12-20T05:06:37.123Z,24.00
2018-12-20T05:07:37.081Z,24.07
2018-12-20T05:08:37.065Z,24.01
2018-12-20T05:09:37.119Z,23.98
2018-12-20T05:10:37.303Z,24.01
2018-12-20T05:11:37.215Z,24.00
2018-12-20T05:12:37.508Z,23.87
2018-12-20T05:13:37.302Z,23.95
2018-12-20T05:14:37.315Z,23.98
2018-12-20T05:15:37.420Z,24.00
2018-12-20T05:16:37.490Z,23.94
2018-12-20T05:17:37.493Z,24.00
2018-12-20T05:18:37.584Z,23.95
2018-12-20T05:19:37.709Z,23.92
2018-12-20T05:20:37.839Z,23.94
2018-12-20T05:21:37.792Z,23.98
2018-12-20T05:22:38.013Z,23.95
2018-12-20T05:23:37.869Z,24.01
2018-12-20T05:24:37.876Z,23.97
2018-12-20T05:25:38.146Z,23.97
2018-12-20T05:26:38.202Z,23.97
2018-12-20T05:27:37.976Z,23.95
2018-12-20T05:28:38.019Z,23.97
2018-12-20T05:29:38.236Z,24.00
2018-12-20T05:30:38.399Z,23.94
2018-12-20T05:31:38.175Z,23.92
2018-12-20T05:32:38.320Z,24.00
2018-12-20T05:33:38.399Z,23.92
2018-12-20T05:34:38.322Z,23.97
2018-12-20T05:35:38.429Z,23.98
2018-12-20T05:36:38.540Z,23.95
2018-12-20T05:37:38.527Z,23.98
2018-12-20T05:38:38.716Z,23.94
2018-12-20T05:39:38.515Z,23.94
2018-12-20T05:40:38.587Z,23.94
2018-12-20T05:41:38.693Z,23.94
2018-12-20T05:42:38.684Z,23.98
2018-12-20T05:43:38.901Z,24.00
2018-12-20T05:44:38.863Z,23.97
2018-12-20T05:45:38.883Z,23.92
2018-12-20T05:46:39.102Z,23.95
2018-12-20T05:47:39.012Z,23.95
2018-12-20T05:48:39.271Z,23.95
2018-12-20T05:49:39.064Z,23.94
2018-12-20T05:50:39.080Z,23.94
2018-12-20T05:51:39.134Z,23.95
2018-12-20T05:52:39.164Z,23.94
2018-12-20T05:53:39.412Z,23.94
2018-12-20T05:54:39.396Z,23.90
2018-12-20T05:55:39.434Z,23.94
2018-12-20T05:56:39.391Z,24.00
2018-12-20T05:57:39.403Z,23.97
2018-12-20T05:58:39.601Z,23.89
2018-12-20T05:59:39.554Z,23.97
2018-12-20T06:00:39.786Z,23.90
2018-12-20T06:01:39.602Z,23.92
2018-12-20T06:02:39.650Z,23.94
2018-12-20T06:03:39.680Z,23.90
2018-12-20T06:04:39.742Z,23.92
2018-12-20T06:05:39.773Z,23.97
2018-12-20T06:06:39.955Z,23.98
2018-12-20T06:07:40.187Z,23.95
2018-12-20T06:08:39.919Z,23.92
2018-12-20T06:09:40.111Z,23.95
2018-12-20T06:10:40.273Z,24.00
2018-12-20T06:11:40.283Z,24.01
2018-12-20T06:12:40.147Z,23.95
2018-12-20T06:13:40.202Z,23.87
2018-12-20T06:14:40.275Z,23.89
2018-12-20T06:15:40.445Z,23.85
2018-12-20T06:16:40.292Z,23.90
2018-12-20T06:17:40.375Z,23.87
2018-12-20T06:18:40.418Z,23.89
2018-12-20T06:19:40.459Z,23.83
2018-12-20T06:20:40.619Z,23.89
2018-12-20T06:21:40.705Z,23.83
2018-12-20T06:22:40.576Z,23.89
2018-12-20T06:23:40.655Z,23.83
2018-12-20T06:24:40.697Z,23.86
2018-12-20T06:25:40.762Z,23.95
2018-12-20T06:26:40.796Z,23.98
2018-12-20T06:27:40.862Z,24.00
2018-12-20T06:28:40.894Z,23.98
2018-12-20T06:29:40.932Z,23.92
2018-12-20T06:30:40.981Z,23.97
2018-12-20T06:31:41.021Z,23.98
2018-12-20T06:32:41.093Z,23.89
2018-12-20T06:33:41.117Z,23.95
2018-12-20T06:34:41.180Z,23.92
2018-12-20T06:35:41.228Z,23.90
2018-12-20T06:36:41.284Z,23.86
2018-12-20T06:37:41.314Z,23.85
2018-12-20T06:38:41.345Z,23.83
2018-12-20T06:39:41.415Z,23.83
2018-12-20T06:40:41.558Z,23.80
2018-12-20T06:41:41.518Z,23.83
2018-12-20T06:42:41.548Z,23.83
2018-12-20T06:43:41.613Z,23.83
2018-12-20T06:44:41.661Z,23.85
2018-12-20T06:45:41.691Z,23.86
2018-12-20T06:46:41.753Z,23.83
2018-12-20T06:47:41.849Z,23.80
2018-12-20T06:48:41.852Z,23.80
2018-12-20T06:49:41.936Z,23.87
2018-12-20T06:50:41.956Z,23.77
2018-12-20T06:51:41.979Z,23.83
2018-12-20T06:52:42.029Z,23.76
2018-12-20T06:53:42.096Z,23.82
2018-12-20T06:54:42.129Z,23.80
2018-12-20T06:55:42.186Z,23.75
2018-12-20T06:56:42.245Z,23.77
2018-12-20T06:57:42.263Z,23.82
2018-12-20T06:58:42.344Z,23.72
2018-12-20T06:59:42.355Z,23.82
2018-12-20T07:00:42.463Z,23.79
2018-12-20T07:01:42.479Z,23.79
2018-12-20T07:02:42.519Z,23.77
2018-12-20T07:03:42.534Z,23.76
2018-12-20T07:04:42.609Z,23.82
2018-12-20T07:05:42.682Z,23.77
2018-12-20T07:06:42.688Z,23.77
2018-12-20T07:07:42.807Z,23.75
2018-12-20T07:08:42.818Z,23.79
2018-12-20T07:09:42.884Z,23.76
2018-12-20T07:10:42.876Z,23.68
2018-12-20T07:11:42.983Z,23.75
2018-12-20T07:12:42.994Z,23.79
2018-12-20T07:13:43.040Z,23.75
2018-12-20T07:14:43.063Z,23.75
2018-12-20T07:15:43.129Z,23.70
2018-12-20T07:16:43.178Z,23.65
2018-12-20T07:17:43.220Z,23.71
2018-12-20T07:18:43.256Z,23.64
2018-12-20T07:19:43.324Z,23.71
2018-12-20T07:20:43.375Z,23.67
2018-12-20T07:21:43.409Z,23.71
2018-12-20T07:22:43.452Z,23.62
2018-12-20T07:23:43.494Z,23.71
2018-12-20T07:24:43.560Z,23.65
2018-12-20T07:25:43.596Z,23.75
2018-12-20T07:26:43.649Z,23.61
2018-12-20T07:27:43.697Z,23.67
2018-12-20T07:28:43.744Z,23.62
2018-12-20T07:29:43.835Z,23.61
2018-12-20T07:30:43.833Z,23.72
2018-12-20T07:31:43.866Z,23.71
2018-12-20T07:32:43.930Z,23.70
2018-12-20T07:33:43.996Z,23.65
2018-12-20T07:34:47.810Z,23.71
2018-12-20T07:35:44.090Z,23.71
2018-12-20T07:36:44.143Z,23.64
2018-12-20T07:37:44.190Z,23.64
2018-12-20T07:38:44.220Z,23.65
2018-12-20T07:39:44.265Z,23.68
2018-12-20T07:40:44.319Z,23.67
2018-12-20T07:41:44.375Z,23.68
2018-12-20T07:42:44.410Z,23.72
2018-12-20T07:43:44.464Z,23.65
2018-12-20T07:44:44.499Z,23.68
2018-12-20T07:45:44.556Z,23.72
2018-12-20T07:46:44.654Z,23.72
2018-12-20T07:47:44.631Z,23.75
2018-12-20T07:48:44.751Z,23.76
2018-12-20T07:49:44.758Z,23.70
2018-12-20T07:50:44.784Z,23.68
2018-12-20T07:51:44.849Z,23.72
2018-12-20T07:52:44.901Z,23.71
2018-12-20T07:53:44.948Z,23.70
2018-12-20T07:54:44.993Z,23.72
2018-12-20T07:55:45.017Z,23.67
2018-12-20T07:56:45.088Z,23.68
2018-12-20T07:57:45.222Z,23.71
2018-12-20T07:58:45.162Z,23.68
2018-12-20T07:59:45.256Z,23.62
2018-12-20T08:00:45.247Z,23.60
2018-12-20T08:01:45.327Z,23.58
2018-12-20T08:02:45.354Z,23.61
2018-12-20T08:03:45.416Z,23.58
2018-12-20T08:04:45.462Z,23.57
2018-12-20T08:05:45.492Z,23.57
2018-12-20T08:06:45.550Z,23.55
2018-12-20T08:07:45.597Z,23.55
2018-12-20T08:08:45.654Z,23.57
2018-12-20T08:09:45.681Z,23.53
2018-12-20T08:10:45.738Z,23.57
2018-12-20T08:11:45.795Z,23.60
2018-12-20T08:12:45.831Z,23.60
2018-12-20T08:13:45.928Z,23.57
2018-12-20T08:14:45.978Z,23.67
2018-12-20T08:15:46.265Z,23.58
2018-12-20T08:16:46.381Z,23.68
2018-12-20T08:17:46.076Z,23.64
2018-12-20T08:18:46.126Z,23.68
2018-12-20T08:19:46.173Z,23.67
2018-12-20T08:20:46.206Z,23.61
2018-12-20T08:21:46.251Z,23.60
2018-12-20T08:22:46.315Z,23.61
2018-12-20T08:23:46.368Z,23.55
2018-12-20T08:24:46.404Z,23.57
2018-12-20T08:25:46.449Z,23.55
2018-12-20T08:26:46.512Z,23.57
2018-12-20T08:27:46.539Z,23.53
2018-12-20T08:28:46.643Z,23.58
2018-12-20T08:29:47.364Z,23.55
2018-12-20T08:30:46.743Z,23.53
2018-12-20T08:31:46.776Z,23.57
2018-12-20T08:32:46.827Z,23.52
2018-12-20T08:33:46.843Z,23.53
2018-12-20T08:34:46.861Z,23.57
2018-12-20T08:35:46.936Z,23.52
2018-12-20T08:36:47.007Z,23.58
2018-12-20T08:37:47.019Z,23.55
2018-12-20T08:38:47.077Z,23.61
2018-12-20T08:39:47.119Z,23.60
2018-12-20T08:40:47.171Z,23.55
2018-12-20T08:41:47.200Z,23.53
2018-12-20T08:42:47.250Z,23.55
2018-12-20T08:43:47.305Z,23.55
2018-12-20T08:44:47.362Z,23.55
2018-12-20T08:45:47.387Z,23.52
2018-12-20T08:46:54.362Z,23.57
2018-12-20T08:47:47.490Z,23.58
2018-12-20T08:48:47.543Z,23.57
2018-12-20T08:49:47.584Z,23.53
2018-12-20T08:50:47.634Z,23.60
2018-12-20T08:51:49.151Z,23.61
2018-12-20T08:52:47.733Z,23.61
2018-12-20T08:53:48.094Z,23.62
2018-12-20T08:54:47.846Z,23.60
2018-12-20T08:55:47.877Z,23.65
2018-12-20T08:56:47.937Z,23.64
2018-12-20T08:57:47.966Z,23.62
2018-12-20T08:58:48.011Z,23.62
2018-12-20T08:59:48.075Z,23.75
2018-12-20T09:00:48.104Z,23.70
2018-12-20T09:01:48.147Z,23.68
2018-12-20T09:02:48.216Z,23.76
2018-12-20T09:03:48.255Z,23.79
2018-12-20T09:04:48.308Z,23.80
2018-12-20T09:05:48.329Z,23.79
2018-12-20T09:06:48.396Z,23.79
2018-12-20T09:07:48.498Z,23.82
2018-12-20T09:08:48.536Z,23.87
2018-12-20T09:09:48.597Z,23.87
2018-12-20T09:10:48.630Z,23.89
2018-12-20T09:11:48.636Z,23.94
2018-12-20T09:12:48.695Z,23.87
2018-12-20T09:13:48.718Z,23.94
2018-12-20T09:14:48.784Z,23.98
2018-12-20T09:15:48.837Z,24.02
2018-12-20T09:16:48.866Z,24.02
2018-12-20T09:17:48.941Z,24.05
2018-12-20T09:18:48.989Z,24.02
2018-12-20T09:19:49.033Z,24.12
2018-12-20T09:20:49.056Z,24.16
2018-12-20T09:21:49.144Z,24.20
2018-12-20T09:22:49.185Z,24.34
2018-12-20T09:23:49.247Z,24.24
2018-12-20T09:24:49.276Z,24.38
2018-12-20T09:25:49.321Z,24.39
2018-12-20T09:26:49.349Z,24.41
2018-12-20T09:27:49.406Z,24.49
2018-12-20T09:28:49.487Z,24.60
2018-12-20T09:29:49.498Z,24.64
2018-12-20T09:30:49.566Z,24.64
2018-12-20T09:31:49.620Z,24.76
2018-12-20T09:32:49.706Z,24.83
2018-12-20T09:33:49.697Z,24.82
2018-12-20T09:34:49.770Z,24.85
2018-12-20T09:35:49.802Z,24.83
2018-12-20T09:36:49.841Z,24.90
2018-12-20T09:37:49.942Z,24.87
2018-12-20T09:38:49.942Z,24.92
2018-12-20T09:39:50.005Z,24.94
2018-12-20T09:40:50.032Z,25.02
2018-12-20T09:41:50.089Z,25.06
2018-12-20T09:42:50.158Z,25.12
2018-12-20T09:43:50.183Z,25.10
2018-12-20T09:44:50.267Z,25.19
2018-12-20T09:45:50.297Z,25.19
2018-12-20T09:46:50.378Z,25.28
2018-12-20T09:47:50.629Z,25.31
2018-12-20T09:48:50.422Z,25.39
2018-12-20T09:49:50.485Z,25.37
2018-12-20T09:50:50.524Z,25.47
2018-12-20T09:51:50.578Z,25.62
2018-12-20T09:52:50.632Z,25.69
2018-12-20T09:53:50.692Z,25.67
2018-12-20T09:54:50.739Z,25.69
2018-12-20T09:55:50.795Z,25.86
2018-12-20T09:56:50.835Z,25.94
2018-12-20T09:57:50.901Z,25.90
2018-12-20T09:58:50.930Z,25.98
2018-12-20T09:59:50.969Z,25.97
2018-12-20T10:00:51.067Z,25.97
2018-12-20T10:01:51.078Z,25.94
2018-12-20T10:02:51.132Z,25.91
2018-12-20T10:03:51.189Z,25.89
2018-12-20T10:04:51.238Z,26.02
2018-12-20T10:05:51.292Z,25.99
2018-12-20T10:06:51.319Z,26.06
2018-12-20T10:07:51.382Z,26.02
2018-12-20T10:08:51.408Z,26.12
2018-12-20T10:09:51.485Z,26.08
2018-12-20T10:10:51.539Z,26.11
2018-12-20T10:11:51.589Z,26.17
2018-12-20T10:12:51.641Z,26.08
2018-12-20T10:13:51.730Z,26.18
2018-12-20T10:14:51.711Z,26.24
2018-12-20T10:15:51.775Z,26.31
2018-12-20T10:16:51.810Z,26.44
2018-12-20T10:17:51.870Z,26.57
2018-12-20T10:18:51.926Z,26.79
2018-12-20T10:19:51.976Z,26.98
2018-12-20T10:20:52.032Z,27.10
2018-12-20T10:21:52.084Z,27.29
2018-12-20T10:22:52.160Z,27.46
2018-12-20T10:23:52.230Z,27.51
2018-12-20T10:24:52.245Z,27.67
2018-12-20T10:25:52.277Z,27.77
2018-12-20T10:26:52.327Z,27.79
2018-12-20T10:27:52.397Z,27.95
2018-12-20T10:28:52.447Z,28.23
2018-12-20T10:29:52.495Z,28.19
2018-12-20T10:30:52.541Z,28.25
2018-12-20T10:31:52.591Z,28.33
2018-12-20T10:32:52.654Z,28.46
2018-12-20T10:33:52.697Z,28.77
2018-12-20T10:34:52.882Z,29.11
2018-12-20T10:35:52.811Z,29.45
2018-12-20T10:36:52.894Z,29.66
2018-12-20T10:37:52.886Z,30.00
2018-12-20T10:38:52.958Z,30.15
2018-12-20T10:39:53.005Z,30.37
2018-12-20T10:40:53.068Z,30.46
2018-12-20T10:41:53.106Z,30.65
2018-12-20T10:42:53.175Z,30.90
2018-12-20T10:43:53.331Z,31.02
2018-12-20T10:44:53.271Z,31.20
2018-12-20T10:45:53.341Z,31.27
2018-12-20T10:46:53.377Z,31.24
2018-12-20T10:47:53.406Z,31.33
2018-12-20T10:48:53.491Z,31.28
2018-12-20T10:49:53.517Z,31.06
2018-12-20T10:50:53.584Z,30.80
2018-12-20T10:51:53.633Z,30.62
2018-12-20T10:52:53.693Z,30.40
2018-12-20T10:53:53.759Z,30.12
2018-12-20T10:54:53.812Z,30.11
2018-12-20T10:55:53.902Z,30.16
2018-12-20T10:56:53.925Z,30.26
2018-12-20T10:57:54.000Z,30.14
2018-12-20T10:58:54.009Z,30.16
2018-12-20T10:59:54.077Z,30.11
2018-12-20T11:00:54.137Z,29.93
2018-12-20T11:01:54.185Z,29.87
2018-12-20T11:02:54.226Z,29.89
2018-12-20T11:03:54.274Z,30.07
2018-12-20T11:04:54.343Z,30.16
2018-12-20T11:05:54.383Z,30.49
2018-12-20T11:06:54.457Z,30.65
2018-12-20T11:07:54.524Z,30.91
2018-12-20T11:08:54.554Z,31.21
2018-12-20T11:09:54.591Z,31.30
2018-12-20T11:10:54.661Z,31.54
2018-12-20T11:11:54.725Z,31.77
2018-12-20T11:12:54.759Z,31.99
2018-12-20T11:13:54.836Z,32.32
2018-12-20T11:14:54.870Z,32.70
2018-12-20T11:15:54.912Z,32.59
2018-12-20T11:16:54.986Z,32.62
2018-12-20T11:17:55.040Z,32.98
2018-12-20T11:18:55.102Z,33.23
2018-12-20T11:19:55.135Z,33.39
2018-12-20T11:20:55.189Z,33.67
2018-12-20T11:21:55.261Z,33.98
2018-12-20T11:22:55.316Z,34.23
2018-12-20T11:23:55.378Z,34.69
2018-12-20T11:24:55.434Z,35.01
2018-12-20T11:25:55.504Z,34.95
2018-12-20T11:26:57.519Z,34.42
2018-12-20T11:27:55.601Z,33.94
2018-12-20T11:28:55.689Z,33.52
2018-12-20T11:29:55.709Z,34.08
2018-12-20T11:30:55.780Z,34.26
2018-12-20T11:31:55.827Z,34.23
2018-12-20T11:32:55.899Z,34.54
2018-12-20T11:33:55.942Z,34.66
2018-12-20T11:34:56.000Z,34.73
2018-12-20T11:35:56.102Z,34.70
2018-12-20T11:36:56.119Z,34.61
2018-12-20T11:37:56.161Z,34.53
2018-12-20T11:38:56.205Z,34.66
2018-12-20T11:39:59.757Z,34.79
2018-12-20T11:40:56.345Z,34.56
2018-12-20T11:41:56.389Z,34.58
2018-12-20T11:42:56.442Z,34.34
2018-12-20T11:43:56.500Z,34.54
2018-12-20T11:44:56.562Z,34.73
2018-12-20T11:45:56.633Z,34.48
2018-12-20T11:46:56.701Z,34.88
2018-12-20T11:47:56.741Z,35.18
2018-12-20T11:48:56.807Z,35.81
2018-12-20T11:49:56.860Z,36.01
2018-12-20T11:50:56.918Z,35.69
2018-12-20T11:51:56.978Z,35.10
2018-12-20T11:52:57.035Z,34.54
2018-12-20T11:53:57.089Z,34.54
2018-12-20T11:54:57.154Z,35.26
2018-12-20T11:55:57.219Z,35.85
2018-12-20T11:56:57.266Z,36.21
2018-12-20T11:57:57.318Z,36.70
2018-12-20T11:58:57.375Z,37.13
2018-12-20T11:59:57.458Z,37.35
2018-12-20T12:00:57.505Z,36.39
2018-12-20T12:01:57.578Z,36.30
2018-12-20T12:02:57.623Z,37.01
2018-12-20T12:03:57.824Z,37.78
2018-12-20T12:04:57.734Z,38.61
2018-12-20T12:05:57.798Z,39.13
2018-12-20T12:06:57.874Z,38.89
2018-12-20T12:07:57.929Z,38.83
2018-12-20T12:08:57.991Z,38.73
2018-12-20T12:09:58.027Z,39.22
2018-12-20T12:10:58.110Z,38.86
2018-12-20T12:11:58.167Z,38.23
2018-12-20T12:12:58.247Z,37.31
2018-12-20T12:13:58.299Z,36.98
2018-12-20T12:14:58.359Z,37.16
2018-12-20T12:15:58.465Z,37.31
2018-12-20T12:16:58.490Z,37.41
2018-12-20T12:17:58.542Z,37.31
2018-12-20T12:18:58.592Z,37.59
2018-12-20T12:19:58.664Z,37.96
2018-12-20T12:20:58.710Z,37.96
2018-12-20T12:21:58.793Z,37.14
2018-12-20T12:22:58.893Z,36.58
2018-12-20T12:23:58.901Z,35.92
2018-12-20T12:24:58.981Z,35.60
2018-12-20T12:25:59.031Z,36.24
2018-12-20T12:26:59.067Z,37.13
2018-12-20T12:27:59.137Z,37.16
2018-12-20T12:28:59.181Z,37.59
2018-12-20T12:29:59.257Z,38.27
2018-12-20T12:30:59.567Z,38.51
2018-12-20T12:31:59.385Z,38.61
2018-12-20T12:32:59.435Z,38.99
2018-12-20T12:33:59.498Z,38.90
2018-12-20T12:34:59.578Z,39.13
2018-12-20T12:35:59.671Z,39.33
2018-12-20T12:36:59.727Z,39.55
2018-12-20T12:37:59.756Z,40.04
2018-12-20T12:38:59.821Z,40.40
2018-12-20T12:39:59.875Z,40.23
2018-12-20T12:40:59.926Z,40.79
2018-12-20T12:42:00.001Z,41.13
2018-12-20T12:43:00.066Z,41.58
2018-12-20T12:44:00.132Z,42.10
2018-12-20T12:45:00.199Z,41.65
2018-12-20T12:46:00.263Z,41.65
2018-12-20T12:47:00.332Z,41.08
2018-12-20T12:48:03.529Z,40.21
2018-12-20T12:49:00.442Z,39.95
2018-12-20T12:50:00.514Z,39.70
2018-12-20T12:51:00.569Z,39.77
2018-12-20T12:52:00.635Z,39.84
2018-12-20T12:53:00.685Z,40.33